Time,TemperatureF,DewpointF,PressureIn,WindDirection,WindDirectionDegrees,WindSpeedMPH,WindSpeedGustMPH,Humidity,HourlyPrecipIn,Conditions,Clouds,dailyrainin,SoftwareType,DateUTC
2015-02-27 00:01:00,30.4,27.8,30.10,SE,142,0.0,0.0,90,0.00,,,0.35,VWS V15.00,2015-02-27 05:01:00,
2015-02-27 00:06:00,30.3,27.7,30.10,SE,142,0.0,0.0,90,0.00,,,0.00,VWS V15.00,2015-02-27 05:06:00,
2015-02-27 00:11:00,30.1,27.5,30.10,SE,142,0.0,0.0,90,0.00,,,0.00,VWS V15.00,2015-02-27 05:11:00,
2015-02-27 00:16:00,30.0,27.7,30.10,SE,142,0.0,0.0,91,0.00,,,0.00,VWS V15.00,2015-02-27 05:16:00,
2015-02-27 00:21:00,29.8,27.5,30.10,SE,142,0.0,0.0,91,0.00,,,0.00,VWS V15.00,2015-02-27 05:21:00,
2015-02-27 00:26:00,29.7,27.4,30.10,SE,142,0.0,0.0,91,0.00,,,0.00,VWS V15.00,2015-02-27 05:26:00,
2015-02-27 00:31:00,29.5,27.2,30.10,SE,142,0.0,0.0,91,0.00,,,0.00,VWS V15.00,2015-02-27 05:31:00,
2015-02-27 00:36:00,29.5,27.2,30.10,SE,142,0.0,0.0,91,0.00,,,0.00,VWS V15.00,2015-02-27 05:36:00,
2015-02-27 00:41:00,29.5,27.5,30.10,SE,142,0.0,0.0,92,0.00,,,0.00,VWS V15.00,2015-02-27 05:41:00,
2015-02-27 00:46:00,29.5,27.5,30.10,SE,142,0.0,0.0,92,0.00,,,0.00,VWS V15.00,2015-02-27 05:46:00,
2015-02-27 00:51:00,29.4,27.4,30.10,SE,142,0.0,0.0,92,0.00,,,0.00,VWS V15.00,2015-02-27 05:51:00,
2015-02-27 00:56:00,29.4,27.4,30.10,SE,142,0.0,0.0,92,0.00,,,0.00,VWS V15.00,2015-02-27 05:56:00,
2015-02-27 01:01:00,29.4,27.4,30.11,SE,142,0.0,0.0,92,0.00,,,0.00,VWS V15.00,2015-02-27 06:01:00,
2015-02-27 01:06:00,29.4,27.6,30.11,SE,142,0.0,0.0,93,0.00,,,0.00,VWS V15.00,2015-02-27 06:06:00,
2015-02-27 01:11:00,29.4,27.6,30.11,SE,142,0.0,0.0,93,0.00,,,0.00,VWS V15.00,2015-02-27 06:11:00,
2015-02-27 01:16:00,29.4,27.6,30.11,SE,142,0.0,0.0,93,0.00,,,0.00,VWS V15.00,2015-02-27 06:16:00,
2015-02-27 01:21:00,29.3,27.5,30.11,SE,142,0.0,0.0,93,0.00,,,0.00,VWS V15.00,2015-02-27 06:21:00,
2015-02-27 01:26:00,29.1,27.3,30.11,SE,142,0.0,0.0,93,0.00,,,0.00,VWS V15.00,2015-02-27 06:26:00,
2015-02-27 01:31:00,29.1,27.3,30.11,SE,142,0.0,0.0,93,0.00,,,0.00,VWS V15.00,2015-02-27 06:31:00,
2015-02-27 01:36:00,29.0,27.2,30.11,SE,142,0.0,0.0,93,0.00,,,0.00,VWS V15.00,2015-02-27 06:36:00,
2015-02-27 01:41:00,28.7,26.9,30.11,SE,142,0.0,0.0,93,0.00,,,0.00,VWS V15.00,2015-02-27 06:41:00,
2015-02-27 01:46:00,28.4,26.6,30.12,SE,142,0.0,0.0,93,0.00,,,0.00,VWS V15.00,2015-02-27 06:46:00,
2015-02-27 01:51:00,28.2,26.4,30.12,SE,142,0.0,0.0,93,0.00,,,0.00,VWS V15.00,2015-02-27 06:51:00,
2015-02-27 01:56:00,28.2,26.7,30.12,SE,142,0.0,0.0,94,0.00,,,0.00,VWS V15.00,2015-02-27 06:56:00,
2015-02-27 02:01:00,28.4,26.9,30.12,SE,142,0.0,0.0,94,0.00,,,0.00,VWS V15.00,2015-02-27 07:01:00,
2015-02-27 02:06:00,28.5,27.0,30.12,SE,142,0.0,0.0,94,0.00,,,0.00,VWS V15.00,2015-02-27 07:06:00,
2015-02-27 02:11:00,28.4,26.9,30.12,SE,142,0.0,0.0,94,0.00,,,0.00,VWS V15.00,2015-02-27 07:11:00,
2015-02-27 02:16:00,28.4,26.9,30.13,SE,142,0.0,0.0,94,0.00,,,0.00,VWS V15.00,2015-02-27 07:16:00,
2015-02-27 02:21:00,28.2,26.7,30.13,SE,142,0.0,0.0,94,0.00,,,0.00,VWS V15.00,2015-02-27 07:21:00,
2015-02-27 02:26:00,28.1,26.6,30.13,SE,142,0.0,0.0,94,0.00,,,0.00,VWS V15.00,2015-02-27 07:26:00,
2015-02-27 02:31:00,28.1,26.9,30.12,SE,142,0.0,0.0,95,0.00,,,0.00,VWS V15.00,2015-02-27 07:31:00,
2015-02-27 02:36:00,28.1,26.9,30.12,SE,142,0.0,0.0,95,0.00,,,0.00,VWS V15.00,2015-02-27 07:36:00,
2015-02-27 02:41:00,28.2,27.0,30.12,SE,142,0.0,0.0,95,0.00,,,0.00,VWS V15.00,2015-02-27 07:41:00,
2015-02-27 02:46:00,28.4,27.1,30.12,East,96,0.0,1.0,95,0.00,,,0.00,VWS V15.00,2015-02-27 07:46:00,
2015-02-27 02:51:00,28.4,27.1,30.12,East,96,0.0,1.0,95,0.00,,,0.00,VWS V15.00,2015-02-27 07:51:00,
2015-02-27 02:56:00,28.4,27.1,30.12,East,96,0.0,0.0,95,0.00,,,0.00,VWS V15.00,2015-02-27 07:56:00,
2015-02-27 03:01:00,28.2,27.0,30.12,East,96,0.0,0.0,95,0.00,,,0.00,VWS V15.00,2015-02-27 08:01:00,
2015-02-27 03:06:00,28.1,26.9,30.12,East,96,0.0,0.0,95,0.00,,,0.00,VWS V15.00,2015-02-27 08:06:00,
2015-02-27 03:11:00,28.1,26.9,30.12,East,96,0.0,0.0,95,0.00,,,0.00,VWS V15.00,2015-02-27 08:11:00,
2015-02-27 03:16:00,27.6,26.4,30.13,East,96,0.0,0.0,95,0.00,,,0.00,VWS V15.00,2015-02-27 08:16:00,
2015-02-27 03:21:00,27.5,26.3,30.13,East,96,0.0,0.0,95,0.00,,,0.00,VWS V15.00,2015-02-27 08:21:00,
2015-02-27 03:26:00,27.2,26.0,30.13,East,96,0.0,0.0,95,0.00,,,0.00,VWS V15.00,2015-02-27 08:26:00,
2015-02-27 03:31:00,27.0,25.8,30.13,East,96,0.0,0.0,95,0.00,,,0.00,VWS V15.00,2015-02-27 08:31:00,
2015-02-27 03:36:00,26.9,25.7,30.13,East,96,0.0,0.0,95,0.00,,,0.00,VWS V15.00,2015-02-27 08:36:00,
2015-02-27 03:41:00,26.9,25.7,30.13,East,96,0.0,0.0,95,0.00,,,0.00,VWS V15.00,2015-02-27 08:41:00,
2015-02-27 03:46:00,26.7,25.5,30.13,East,96,0.0,0.0,95,0.00,,,0.00,VWS V15.00,2015-02-27 08:46:00,
2015-02-27 03:51:00,26.7,25.5,30.13,East,96,0.0,0.0,95,0.00,,,0.00,VWS V15.00,2015-02-27 08:51:00,
2015-02-27 03:56:00,26.9,25.9,30.13,East,96,0.0,0.0,96,0.00,,,0.00,VWS V15.00,2015-02-27 08:56:00,
2015-02-27 04:01:00,27.0,26.0,30.14,East,96,0.0,0.0,96,0.00,,,0.00,VWS V15.00,2015-02-27 09:01:00,
2015-02-27 04:06:00,27.0,26.0,30.14,East,96,0.0,0.0,96,0.00,,,0.00,VWS V15.00,2015-02-27 09:06:00,
2015-02-27 04:11:00,27.2,26.2,30.14,East,96,0.0,0.0,96,0.00,,,0.00,VWS V15.00,2015-02-27 09:11:00,
2015-02-27 04:15:00,27.2,26.2,30.15,East,96,0.0,0.0,96,0.00,,,0.00,VWS V15.00,2015-02-27 09:15:00,
2015-02-27 04:20:00,27.0,26.0,30.15,East,96,0.0,0.0,96,0.00,,,0.00,VWS V15.00,2015-02-27 09:20:00,
2015-02-27 04:26:00,27.0,26.0,30.15,East,96,0.0,0.0,96,0.00,,,0.00,VWS V15.00,2015-02-27 09:26:00,
2015-02-27 04:31:00,27.0,26.0,30.15,East,96,0.0,0.0,96,0.00,,,0.00,VWS V15.00,2015-02-27 09:31:00,
2015-02-27 04:36:00,27.0,26.0,30.15,East,96,0.0,0.0,96,0.00,,,0.00,VWS V15.00,2015-02-27 09:36:00,
2015-02-27 04:40:00,26.9,25.9,30.15,East,96,0.0,0.0,96,0.00,,,0.00,VWS V15.00,2015-02-27 09:40:00,
2015-02-27 04:45:00,26.9,26.2,30.15,East,96,0.0,0.0,97,0.00,,,0.00,VWS V15.00,2015-02-27 09:45:00,
2015-02-27 04:50:00,27.0,26.3,30.15,East,96,0.0,0.0,97,0.00,,,0.00,VWS V15.00,2015-02-27 09:50:00,
2015-02-27 04:55:00,27.0,26.3,30.15,East,96,0.0,0.0,97,0.00,,,0.00,VWS V15.00,2015-02-27 09:55:00,
2015-02-27 05:00:00,26.9,26.2,30.16,East,96,0.0,0.0,97,0.00,,,0.00,VWS V15.00,2015-02-27 10:00:00,
2015-02-27 05:05:00,26.9,26.2,30.16,East,96,0.0,0.0,97,0.00,,,0.00,VWS V15.00,2015-02-27 10:05:00,
2015-02-27 05:10:00,26.9,26.2,30.16,East,96,0.0,0.0,97,0.00,,,0.00,VWS V15.00,2015-02-27 10:10:00,
2015-02-27 05:15:00,27.0,26.3,30.18,East,96,0.0,0.0,97,0.00,,,0.00,VWS V15.00,2015-02-27 10:15:00,
2015-02-27 05:20:00,27.0,26.3,30.18,East,96,0.0,0.0,97,0.00,,,0.00,VWS V15.00,2015-02-27 10:20:00,
2015-02-27 05:25:00,26.9,26.2,30.18,East,96,0.0,0.0,97,0.00,,,0.00,VWS V15.00,2015-02-27 10:25:00,
2015-02-27 05:30:00,26.7,26.0,30.19,East,96,0.0,0.0,97,0.00,,,0.00,VWS V15.00,2015-02-27 10:30:00,
2015-02-27 05:35:00,26.6,25.9,30.19,East,96,0.0,0.0,97,0.00,,,0.00,VWS V15.00,2015-02-27 10:35:00,
2015-02-27 05:40:00,26.4,25.7,30.19,East,96,0.0,0.0,97,0.00,,,0.00,VWS V15.00,2015-02-27 10:40:00,
2015-02-27 05:45:00,26.4,25.7,30.20,East,96,0.0,0.0,97,0.00,,,0.00,VWS V15.00,2015-02-27 10:45:00,
2015-02-27 05:50:00,26.4,25.7,30.20,East,96,0.0,0.0,97,0.00,,,0.00,VWS V15.00,2015-02-27 10:50:00,
2015-02-27 05:55:00,26.3,25.6,30.20,East,96,0.0,0.0,97,0.00,,,0.00,VWS V15.00,2015-02-27 10:55:00,
2015-02-27 06:00:00,26.1,25.1,30.22,North,359,0.0,0.0,96,0.00,,,0.00,VWS V15.00,2015-02-27 11:00:00,
2015-02-27 06:05:00,26.0,25.0,30.22,North,359,0.0,1.0,96,0.00,,,0.00,VWS V15.00,2015-02-27 11:05:00,
2015-02-27 06:10:00,26.0,25.3,30.22,North,0,0.0,1.0,97,0.00,,,0.00,VWS V15.00,2015-02-27 11:10:00,
2015-02-27 06:15:00,26.3,25.6,30.23,NW,326,1.0,4.0,97,0.00,,,0.00,VWS V15.00,2015-02-27 11:15:00,
2015-02-27 06:20:00,26.6,25.9,30.23,NNW,330,0.0,4.0,97,0.00,,,0.00,VWS V15.00,2015-02-27 11:20:00,
2015-02-27 06:25:00,26.7,25.7,30.23,North,2,2.0,2.0,96,0.00,,,0.00,VWS V15.00,2015-02-27 11:25:00,
2015-02-27 06:30:00,26.6,25.4,30.23,NNW,343,0.0,2.0,95,0.00,,,0.00,VWS V15.00,2015-02-27 11:30:00,
2015-02-27 06:35:00,26.4,25.2,30.23,NNW,342,0.0,0.0,95,0.00,,,0.00,VWS V15.00,2015-02-27 11:35:00,
2015-02-27 06:40:00,26.3,24.8,30.23,NNW,342,0.0,0.0,94,0.00,,,0.00,VWS V15.00,2015-02-27 11:40:00,
2015-02-27 06:45:00,26.1,24.6,30.24,NNW,342,0.0,0.0,94,0.00,,,0.00,VWS V15.00,2015-02-27 11:45:00,
2015-02-27 06:50:00,26.3,24.8,30.24,NNW,342,0.0,0.0,94,0.00,,,0.00,VWS V15.00,2015-02-27 11:50:00,
2015-02-27 06:55:00,26.4,24.6,30.24,NNW,342,0.0,0.0,93,0.00,,,0.00,VWS V15.00,2015-02-27 11:55:00,
2015-02-27 07:00:00,26.4,24.4,30.25,NNW,342,0.0,0.0,92,0.00,,,0.00,VWS V15.00,2015-02-27 12:00:00,
2015-02-27 07:05:00,26.3,24.0,30.25,NNW,342,0.0,0.0,91,0.00,,,0.00,VWS V15.00,2015-02-27 12:05:00,
2015-02-27 07:10:00,26.1,23.8,30.25,NNW,342,0.0,1.0,91,0.00,,,0.00,VWS V15.00,2015-02-27 12:10:00,
2015-02-27 07:15:00,26.3,24.0,30.26,NNW,342,0.0,3.0,91,0.00,,,0.00,VWS V15.00,2015-02-27 12:15:00,
2015-02-27 07:20:00,26.3,23.8,30.26,NNW,342,0.0,3.0,90,0.00,,,0.00,VWS V15.00,2015-02-27 12:20:00,
2015-02-27 07:25:00,26.4,23.9,30.26,NNW,342,0.0,0.0,90,0.00,,,0.00,VWS V15.00,2015-02-27 12:25:00,
2015-02-27 07:30:00,26.4,23.6,30.27,NNW,342,0.0,0.0,89,0.00,,,0.00,VWS V15.00,2015-02-27 12:30:00,
2015-02-27 07:35:00,26.4,23.6,30.27,NNW,342,0.0,0.0,89,0.00,,,0.00,VWS V15.00,2015-02-27 12:35:00,
2015-02-27 07:40:00,26.4,23.3,30.27,NNW,342,0.0,0.0,88,0.00,,,0.00,VWS V15.00,2015-02-27 12:40:00,
2015-02-27 07:45:00,26.6,23.5,30.27,NNW,342,0.0,0.0,88,0.00,,,0.00,VWS V15.00,2015-02-27 12:45:00,
2015-02-27 07:50:00,26.6,23.3,30.27,NNW,342,0.0,0.0,87,0.00,,,0.00,VWS V15.00,2015-02-27 12:50:00,
2015-02-27 07:55:00,26.7,23.1,30.27,NNW,342,0.0,2.0,86,0.00,,,0.00,VWS V15.00,2015-02-27 12:55:00,
2015-02-27 08:00:00,27.0,22.8,30.29,North,357,3.0,5.0,84,0.00,,,0.00,VWS V15.00,2015-02-27 13:00:00,
2015-02-27 08:05:00,27.2,22.7,30.29,NNW,346,0.0,2.0,83,0.00,,,0.00,VWS V15.00,2015-02-27 13:05:00,
2015-02-27 08:10:00,27.5,22.7,30.29,North,353,1.0,6.0,82,0.00,,,0.00,VWS V15.00,2015-02-27 13:10:00,
2015-02-27 08:15:00,27.8,22.4,30.30,North,1,0.0,2.0,80,0.00,,,0.00,VWS V15.00,2015-02-27 13:15:00,
2015-02-27 08:20:00,28.1,22.1,30.30,North,354,2.0,5.0,78,0.00,,,0.00,VWS V15.00,2015-02-27 13:20:00,
2015-02-27 08:25:00,28.5,21.9,30.30,NNW,347,0.0,2.0,76,0.00,,,0.00,VWS V15.00,2015-02-27 13:25:00,
2015-02-27 08:30:00,29.0,22.1,30.31,North,359,0.0,2.0,75,0.00,,,0.00,VWS V15.00,2015-02-27 13:30:00,
2015-02-27 08:35:00,29.4,21.5,30.31,North,356,4.0,5.0,72,0.00,,,0.00,VWS V15.00,2015-02-27 13:35:00,
2015-02-27 08:40:00,29.8,21.6,30.31,North,353,0.0,5.0,71,0.00,,,0.00,VWS V15.00,2015-02-27 13:40:00,
2015-02-27 08:45:00,30.1,20.5,30.31,WNW,303,1.0,6.0,67,0.00,,,0.00,VWS V15.00,2015-02-27 13:45:00,
2015-02-27 08:50:00,30.6,20.2,30.31,North,349,0.0,6.0,65,0.00,,,0.00,VWS V15.00,2015-02-27 13:50:00,
2015-02-27 08:55:00,30.9,20.2,30.31,NNW,331,10.0,10.0,64,0.00,,,0.00,VWS V15.00,2015-02-27 13:55:00,
2015-02-27 09:00:00,31.3,19.8,30.32,NNE,30,0.0,10.0,62,0.00,,,0.00,VWS V15.00,2015-02-27 14:00:00,
2015-02-27 09:05:00,31.6,19.7,30.32,North,357,1.0,5.0,61,0.00,,,0.00,VWS V15.00,2015-02-27 14:05:00,
2015-02-27 09:10:00,31.8,18.7,30.32,North,349,5.0,9.0,58,0.00,,,0.00,VWS V15.00,2015-02-27 14:10:00,
2015-02-27 09:15:00,31.9,18.4,30.33,NNW,333,0.0,10.0,57,0.00,,,0.00,VWS V15.00,2015-02-27 14:15:00,
2015-02-27 09:20:00,32.1,19.0,30.33,NNW,340,6.0,10.0,58,0.00,,,0.00,VWS V15.00,2015-02-27 14:20:00,
2015-02-27 09:25:00,32.2,18.7,30.33,NW,316,0.0,9.0,57,0.00,,,0.00,VWS V15.00,2015-02-27 14:25:00,
2015-02-27 09:30:00,32.2,18.3,30.33,NW,323,11.0,11.0,56,0.00,,,0.00,VWS V15.00,2015-02-27 14:30:00,
2015-02-27 09:35:00,32.2,18.3,30.33,WNW,293,0.0,12.0,56,0.00,,,0.00,VWS V15.00,2015-02-27 14:35:00,
2015-02-27 09:40:00,32.4,18.5,30.33,NNW,344,11.0,13.0,56,0.00,,,0.00,VWS V15.00,2015-02-27 14:40:00,
2015-02-27 09:45:00,32.5,19.0,30.33,WNW,295,4.0,6.0,57,0.00,,,0.00,VWS V15.00,2015-02-27 14:45:00,
2015-02-27 09:50:00,32.5,18.1,30.33,NW,309,5.0,12.0,55,0.00,,,0.00,VWS V15.00,2015-02-27 14:50:00,
2015-02-27 09:55:00,32.7,18.8,30.33,NNW,331,2.0,10.0,56,0.00,,,0.00,VWS V15.00,2015-02-27 14:55:00,
2015-02-27 10:00:00,32.8,18.4,30.33,North,352,8.0,10.0,55,0.00,,,0.00,VWS V15.00,2015-02-27 15:00:00,
2015-02-27 10:05:00,33.1,19.1,30.33,NNE,13,1.0,9.0,56,0.00,,,0.00,VWS V15.00,2015-02-27 15:05:00,
2015-02-27 10:10:00,33.4,18.6,30.33,NE,36,8.0,9.0,54,0.00,,,0.00,VWS V15.00,2015-02-27 15:10:00,
2015-02-27 10:15:00,33.7,18.4,30.33,NE,35,0.0,6.0,53,0.00,,,0.00,VWS V15.00,2015-02-27 15:15:00,
2015-02-27 10:20:00,33.8,18.0,30.33,NNW,342,0.0,11.0,52,0.00,,,0.00,VWS V15.00,2015-02-27 15:20:00,
2015-02-27 10:25:00,34.1,19.2,30.33,NW,321,4.0,6.0,54,0.00,,,0.00,VWS V15.00,2015-02-27 15:25:00,
2015-02-27 10:30:00,34.3,19.0,30.34,NW,326,7.0,9.0,53,0.00,,,0.00,VWS V15.00,2015-02-27 15:30:00,
2015-02-27 10:35:00,34.1,17.9,30.34,NW,314,2.0,9.0,51,0.00,,,0.00,VWS V15.00,2015-02-27 15:35:00,
2015-02-27 10:40:00,34.3,18.5,30.34,NW,306,5.0,9.0,52,0.00,,,0.00,VWS V15.00,2015-02-27 15:40:00,
2015-02-27 10:45:00,34.4,18.2,30.34,NW,305,0.0,10.0,51,0.00,,,0.00,VWS V15.00,2015-02-27 15:45:00,
2015-02-27 10:50:00,34.7,18.9,30.34,WNW,283,5.0,10.0,52,0.00,,,0.00,VWS V15.00,2015-02-27 15:50:00,
2015-02-27 10:55:00,34.9,18.6,30.34,NNW,332,6.0,8.0,51,0.00,,,0.00,VWS V15.00,2015-02-27 15:55:00,
2015-02-27 11:00:00,35.0,18.7,30.34,NNW,331,0.0,8.0,51,0.00,,,0.00,VWS V15.00,2015-02-27 16:00:00,
2015-02-27 11:05:00,35.2,18.4,30.34,WNW,283,0.0,11.0,50,0.01,,,0.01,VWS V15.00,2015-02-27 16:05:00,
2015-02-27 11:10:00,34.9,18.2,30.34,NNE,18,7.0,11.0,50,0.01,,,0.01,VWS V15.00,2015-02-27 16:10:00,
2015-02-27 11:15:00,35.0,17.3,30.35,NNW,341,0.0,8.0,48,0.01,,,0.01,VWS V15.00,2015-02-27 16:15:00,
2015-02-27 11:20:00,35.2,18.9,30.35,NNE,29,0.0,8.0,51,0.01,,,0.01,VWS V15.00,2015-02-27 16:20:00,
2015-02-27 11:25:00,35.6,19.3,30.35,North,349,0.0,5.0,51,0.01,,,0.01,VWS V15.00,2015-02-27 16:25:00,
2015-02-27 11:30:00,35.6,18.8,30.36,NW,319,0.0,9.0,50,0.01,,,0.01,VWS V15.00,2015-02-27 16:30:00,
2015-02-27 11:35:00,35.6,19.3,30.36,NNW,338,1.0,9.0,51,0.01,,,0.01,VWS V15.00,2015-02-27 16:35:00,
2015-02-27 11:40:00,35.9,18.1,30.36,NW,316,2.0,9.0,48,0.01,,,0.01,VWS V15.00,2015-02-27 16:40:00,
2015-02-27 11:45:00,35.8,18.0,30.35,WNW,287,0.0,5.0,48,0.01,,,0.01,VWS V15.00,2015-02-27 16:45:00,
2015-02-27 11:50:00,35.8,18.5,30.35,North,7,3.0,7.0,49,0.01,,,0.01,VWS V15.00,2015-02-27 16:50:00,
2015-02-27 11:55:00,35.8,18.0,30.35,NW,314,0.0,6.0,48,0.01,,,0.01,VWS V15.00,2015-02-27 16:55:00,
2015-02-27 12:00:00,35.6,17.9,30.36,NNW,334,0.0,6.0,48,0.01,,,0.01,VWS V15.00,2015-02-27 17:00:00,
2015-02-27 12:05:00,35.6,18.3,30.36,NNW,334,7.0,7.0,49,0.01,,,0.01,VWS V15.00,2015-02-27 17:05:00,
2015-02-27 12:10:00,35.9,18.1,30.36,North,352,0.0,9.0,48,0.01,,,0.01,VWS V15.00,2015-02-27 17:10:00,
2015-02-27 12:15:00,36.0,17.2,30.36,NW,319,0.0,9.0,46,0.00,,,0.01,VWS V15.00,2015-02-27 17:15:00,
2015-02-27 12:20:00,36.2,17.9,30.36,WNW,291,0.0,9.0,47,0.00,,,0.01,VWS V15.00,2015-02-27 17:20:00,
2015-02-27 12:25:00,36.3,18.0,30.36,NW,326,2.0,8.0,47,0.00,,,0.01,VWS V15.00,2015-02-27 17:25:00,
2015-02-27 12:30:00,36.2,17.9,30.36,NW,326,0.0,9.0,47,0.00,,,0.01,VWS V15.00,2015-02-27 17:30:00,
2015-02-27 12:35:00,36.0,17.2,30.36,North,352,0.0,5.0,46,0.00,,,0.01,VWS V15.00,2015-02-27 17:35:00,
2015-02-27 12:40:00,36.2,17.4,30.36,NNW,340,0.0,5.0,46,0.00,,,0.01,VWS V15.00,2015-02-27 17:40:00,
2015-02-27 12:45:00,36.6,17.8,30.36,North,0,0.0,2.0,46,0.00,,,0.01,VWS V15.00,2015-02-27 17:45:00,
2015-02-27 12:50:00,36.9,17.6,30.35,NNW,330,0.0,2.0,45,0.00,,,0.01,VWS V15.00,2015-02-27 17:50:00,
2015-02-27 12:55:00,37.0,18.2,30.35,NNW,345,0.0,1.0,46,0.00,,,0.01,VWS V15.00,2015-02-27 17:55:00,
2015-02-27 13:00:00,37.3,18.4,30.35,ESE,102,0.0,1.0,46,0.00,,,0.01,VWS V15.00,2015-02-27 18:00:00,
2015-02-27 13:05:00,38.2,20.7,30.34,ENE,65,0.0,0.0,49,0.00,,,0.01,VWS V15.00,2015-02-27 18:05:00,
2015-02-27 13:10:00,39.1,21.1,30.34,ENE,58,0.0,3.0,48,0.01,,,0.02,VWS V15.00,2015-02-27 18:10:00,
2015-02-27 13:15:00,39.8,19.1,30.34,South,181,0.0,4.0,43,0.01,,,0.02,VWS V15.00,2015-02-27 18:15:00,
2015-02-27 13:20:00,39.6,19.5,30.33,NW,307,1.0,6.0,44,0.01,,,0.02,VWS V15.00,2015-02-27 18:20:00,
2015-02-27 13:25:00,39.6,20.0,30.33,ENE,65,1.0,6.0,45,0.01,,,0.02,VWS V15.00,2015-02-27 18:25:00,
2015-02-27 13:30:00,40.3,19.6,30.33,NNW,347,0.0,6.0,43,0.01,,,0.02,VWS V15.00,2015-02-27 18:30:00,
2015-02-27 13:35:00,40.1,18.3,30.33,WNW,293,5.0,8.0,41,0.01,,,0.02,VWS V15.00,2015-02-27 18:35:00,
2015-02-27 13:40:00,39.6,19.0,30.33,North,352,0.0,8.0,43,0.01,,,0.02,VWS V15.00,2015-02-27 18:40:00,
2015-02-27 13:45:00,39.2,17.5,30.33,NNW,342,0.0,6.0,41,0.01,,,0.02,VWS V15.00,2015-02-27 18:45:00,
2015-02-27 13:50:00,39.3,20.3,30.32,NNW,342,0.0,6.0,46,0.01,,,0.02,VWS V15.00,2015-02-27 18:50:00,
2015-02-27 13:55:00,39.6,19.0,30.32,NNW,327,0.0,6.0,43,0.01,,,0.02,VWS V15.00,2015-02-27 18:55:00,
2015-02-27 14:00:00,40.1,20.5,30.32,NNE,23,0.0,8.0,45,0.01,,,0.02,VWS V15.00,2015-02-27 19:00:00,
2015-02-27 14:05:00,40.5,20.9,30.32,North,8,3.0,8.0,45,0.01,,,0.02,VWS V15.00,2015-02-27 19:05:00,
2015-02-27 14:10:00,40.3,19.6,30.32,NNE,27,1.0,9.0,43,0.01,,,0.02,VWS V15.00,2015-02-27 19:10:00,
2015-02-27 14:15:00,40.5,18.1,30.32,North,8,0.0,1.0,40,0.00,,,0.02,VWS V15.00,2015-02-27 19:15:00,
2015-02-27 14:20:00,40.6,17.6,30.33,NW,319,0.0,5.0,39,0.00,,,0.02,VWS V15.00,2015-02-27 19:20:00,
2015-02-27 14:25:00,40.6,18.8,30.33,NNW,342,4.0,7.0,41,0.00,,,0.02,VWS V15.00,2015-02-27 19:25:00,
2015-02-27 14:30:00,40.9,17.3,30.33,NW,324,7.0,10.0,38,0.00,,,0.02,VWS V15.00,2015-02-27 19:30:00,
2015-02-27 14:35:00,40.5,17.5,30.34,NNW,329,6.0,9.0,39,0.00,,,0.02,VWS V15.00,2015-02-27 19:35:00,
2015-02-27 14:40:00,40.2,15.4,30.34,North,359,7.0,9.0,36,0.00,,,0.02,VWS V15.00,2015-02-27 19:40:00,
2015-02-27 14:45:00,40.1,17.1,30.34,NNW,329,1.0,9.0,39,0.00,,,0.02,VWS V15.00,2015-02-27 19:45:00,
2015-02-27 14:50:00,40.3,16.1,30.33,NW,323,2.0,9.0,37,0.00,,,0.02,VWS V15.00,2015-02-27 19:50:00,
2015-02-27 14:55:00,40.9,17.3,30.33,West,281,2.0,9.0,38,0.00,,,0.02,VWS V15.00,2015-02-27 19:55:00,
2015-02-27 15:00:00,41.3,15.7,30.33,NNW,337,7.0,9.0,35,0.00,,,0.02,VWS V15.00,2015-02-27 20:00:00,
2015-02-27 15:05:00,41.2,15.6,30.33,NW,314,5.0,10.0,35,0.00,,,0.02,VWS V15.00,2015-02-27 20:05:00,
2015-02-27 15:10:00,41.1,18.0,30.33,ENE,74,0.0,10.0,39,0.00,,,0.02,VWS V15.00,2015-02-27 20:10:00,
2015-02-27 15:15:00,41.2,17.5,30.33,NNE,25,0.0,12.0,38,0.00,,,0.02,VWS V15.00,2015-02-27 20:15:00,
2015-02-27 15:20:00,41.5,16.5,30.33,NNW,338,1.0,12.0,36,0.00,,,0.02,VWS V15.00,2015-02-27 20:20:00,
2015-02-27 15:25:00,41.1,16.2,30.33,NNW,338,5.0,14.0,36,0.00,,,0.02,VWS V15.00,2015-02-27 20:25:00,
2015-02-27 15:30:00,40.9,14.7,30.33,NW,305,5.0,14.0,34,0.00,,,0.02,VWS V15.00,2015-02-27 20:30:00,
2015-02-27 15:35:00,40.9,16.0,30.34,North,350,0.0,4.0,36,0.00,,,0.02,VWS V15.00,2015-02-27 20:35:00,
2015-02-27 15:40:00,41.3,17.0,30.34,North,354,2.0,8.0,37,0.00,,,0.02,VWS V15.00,2015-02-27 20:40:00,
2015-02-27 15:45:00,41.5,15.2,30.34,NNW,328,0.0,5.0,34,0.00,,,0.02,VWS V15.00,2015-02-27 20:45:00,
2015-02-27 15:50:00,41.8,15.5,30.34,NW,310,3.0,12.0,34,0.00,,,0.02,VWS V15.00,2015-02-27 20:50:00,
2015-02-27 15:55:00,41.3,13.7,30.34,NW,321,4.0,11.0,32,0.00,,,0.02,VWS V15.00,2015-02-27 20:55:00,
2015-02-27 16:00:00,41.2,15.0,30.34,NW,315,0.0,11.0,34,0.00,,,0.02,VWS V15.00,2015-02-27 21:00:00,
2015-02-27 16:05:00,41.3,15.7,30.35,West,281,7.0,12.0,35,0.00,,,0.02,VWS V15.00,2015-02-27 21:05:00,
2015-02-27 16:10:00,41.3,15.1,30.35,North,359,6.0,12.0,34,0.00,,,0.02,VWS V15.00,2015-02-27 21:10:00,
2015-02-27 16:15:00,41.3,14.4,30.35,NNW,345,2.0,10.0,33,0.00,,,0.02,VWS V15.00,2015-02-27 21:15:00,
2015-02-27 16:20:00,41.2,12.9,30.36,NNW,334,0.0,10.0,31,0.00,,,0.02,VWS V15.00,2015-02-27 21:20:00,
2015-02-27 16:25:00,41.2,13.6,30.36,NNW,333,6.0,11.0,32,0.00,,,0.02,VWS V15.00,2015-02-27 21:25:00,
2015-02-27 16:30:00,41.2,12.9,30.36,NNW,335,4.0,11.0,31,0.00,,,0.02,VWS V15.00,2015-02-27 21:30:00,
2015-02-27 16:35:00,41.2,15.0,30.36,NW,316,10.0,10.0,34,0.00,,,0.02,VWS V15.00,2015-02-27 21:35:00,
2015-02-27 16:40:00,41.1,15.6,30.36,NW,321,5.0,10.0,35,0.00,,,0.02,VWS V15.00,2015-02-27 21:40:00,
2015-02-27 16:45:00,40.9,16.0,30.36,NNW,346,5.0,8.0,36,0.00,,,0.02,VWS V15.00,2015-02-27 21:45:00,
2015-02-27 16:50:00,40.8,15.3,30.36,North,358,1.0,8.0,35,0.00,,,0.02,VWS V15.00,2015-02-27 21:50:00,
2015-02-27 16:55:00,40.6,15.8,30.36,NNW,333,0.0,8.0,36,0.00,,,0.02,VWS V15.00,2015-02-27 21:55:00,
2015-02-27 17:00:00,40.5,15.7,30.36,NNE,24,0.0,8.0,36,0.00,,,0.02,VWS V15.00,2015-02-27 22:00:00,
2015-02-27 17:05:00,40.5,16.9,30.37,NNE,20,0.0,3.0,38,0.00,,,0.02,VWS V15.00,2015-02-27 22:05:00,
2015-02-27 17:10:00,40.5,16.9,30.37,NNE,18,5.0,6.0,38,0.00,,,0.02,VWS V15.00,2015-02-27 22:10:00,
2015-02-27 17:15:00,40.3,14.8,30.37,NW,326,0.0,5.0,35,0.00,,,0.02,VWS V15.00,2015-02-27 22:15:00,
2015-02-27 17:20:00,40.2,16.0,30.38,North,1,0.0,5.0,37,0.00,,,0.02,VWS V15.00,2015-02-27 22:20:00,
2015-02-27 17:25:00,39.8,16.3,30.38,North,6,0.0,9.0,38,0.00,,,0.02,VWS V15.00,2015-02-27 22:25:00,
2015-02-27 17:30:00,39.6,15.5,30.38,NNE,15,0.0,9.0,37,0.00,,,0.02,VWS V15.00,2015-02-27 22:30:00,
2015-02-27 17:35:00,39.2,14.5,30.39,NNW,328,1.0,7.0,36,0.00,,,0.02,VWS V15.00,2015-02-27 22:35:00,
2015-02-27 17:40:00,38.9,15.5,30.39,NW,304,0.0,7.0,38,0.00,,,0.02,VWS V15.00,2015-02-27 22:40:00,
2015-02-27 17:45:00,38.6,15.2,30.39,NW,308,6.0,8.0,38,0.00,,,0.02,VWS V15.00,2015-02-27 22:45:00,
2015-02-27 17:49:00,38.3,15.5,30.40,NNW,328,3.0,8.0,39,0.00,,,0.02,VWS V15.00,2015-02-27 22:49:00,
2015-02-27 17:54:00,38.0,14.7,30.40,NW,326,7.0,7.0,38,0.00,,,0.02,VWS V15.00,2015-02-27 22:54:00,
2015-02-27 17:59:00,37.9,15.2,30.40,NNW,329,3.0,8.0,39,0.00,,,0.02,VWS V15.00,2015-02-27 22:59:00,
2015-02-27 18:04:00,37.6,14.9,30.41,NNW,328,2.0,7.0,39,0.00,,,0.02,VWS V15.00,2015-02-27 23:04:00,
2015-02-27 18:09:00,37.3,15.2,30.41,North,354,0.0,7.0,40,0.00,,,0.02,VWS V15.00,2015-02-27 23:09:00,